sensor_id;sensor_type;location;lat;lon;timestamp;pressure;altitude;pressure_sealevel;temperature;humidity
21361;BME280;10839;43.206;23.550;2023-05-11T00:02:18;97358.75;;;12.62;94.38
21361;BME280;10839;43.206;23.550;2023-05-11T00:04:44;97357.03;;;12.48;95.52
21361;BME280;10839;43.206;23.550;2023-05-11T00:07:09;97359.91;;;12.40;96.37
21361;BME280;10839;43.206;23.550;2023-05-11T00:09:35;97365.75;;;12.50;95.90
21361;BME280;10839;43.206;23.550;2023-05-11T00:12:03;97362.44;;;12.48;95.58
21361;BME280;10839;43.206;23.550;2023-05-11T00:14:29;97352.03;;;12.45;96.34
21361;BME280;10839;43.206;23.550;2023-05-11T00:16:55;97353.72;;;12.53;96.64
21361;BME280;10839;43.206;23.550;2023-05-11T00:19:20;97352.91;;;12.52;96.75
21361;BME280;10839;43.206;23.550;2023-05-11T00:21:46;97347.63;;;12.38;98.85
21361;BME280;10839;43.206;23.550;2023-05-11T00:24:12;97357.69;;;12.16;100.00
21361;BME280;10839;43.206;23.550;2023-05-11T00:26:38;97346.91;;;12.16;100.00
21361;BME280;10839;43.206;23.550;2023-05-11T00:29:03;97345.66;;;12.12;100.00
21361;BME280;10839;43.206;23.550;2023-05-11T00:31:30;97353.06;;;11.97;100.00
21361;BME280;10839;43.206;23.550;2023-05-11T00:33:57;97356.50;;;12.19;100.00
21361;BME280;10839;43.206;23.550;2023-05-11T00:36:24;97355.81;;;12.10;100.00
21361;BME280;10839;43.206;23.550;2023-05-11T00:38:50;97361.78;;;11.99;100.00
21361;BME280;10839;43.206;23.550;2023-05-11T00:41:17;97353.44;;;11.94;100.00
21361;BME280;10839;43.206;23.550;2023-05-11T00:43:43;97350.13;;;11.92;100.00
21361;BME280;10839;43.206;23.550;2023-05-11T00:46:08;97362.97;;;11.90;100.00
21361;BME280;10839;43.206;23.550;2023-05-11T00:48:35;97355.19;;;12.08;100.00
21361;BME280;10839;43.206;23.550;2023-05-11T00:51:02;97355.66;;;12.18;100.00
21361;BME280;10839;43.206;23.550;2023-05-11T00:53:28;97355.97;;;12.02;100.00
21361;BME280;10839;43.206;23.550;2023-05-11T00:55:54;97353.53;;;12.07;100.00
21361;BME280;10839;43.206;23.550;2023-05-11T00:58:21;97351.84;;;12.06;100.00
21361;BME280;10839;43.206;23.550;2023-05-11T01:00:47;97360.09;;;11.98;100.00
21361;BME280;10839;43.206;23.550;2023-05-11T01:03:13;97364.25;;;11.94;100.00
21361;BME280;10839;43.206;23.550;2023-05-11T01:05:44;97352.63;;;11.94;100.00
21361;BME280;10839;43.206;23.550;2023-05-11T01:08:38;97351.78;;;11.93;100.00
21361;BME280;10839;43.206;23.550;2023-05-11T01:11:16;97343.44;;;11.88;100.00
21361;BME280;10839;43.206;23.550;2023-05-11T01:13:52;97353.44;;;11.94;100.00
21361;BME280;10839;43.206;23.550;2023-05-11T01:16:21;97358.16;;;11.86;100.00
21361;BME280;10839;43.206;23.550;2023-05-11T01:19:23;97343.50;;;12.01;100.00
21361;BME280;10839;43.206;23.550;2023-05-11T01:21:52;97350.75;;;11.94;100.00
21361;BME280;10839;43.206;23.550;2023-05-11T01:27:13;97349.31;;;11.98;100.00
21361;BME280;10839;43.206;23.550;2023-05-11T01:29:57;97348.66;;;11.96;100.00
21361;BME280;10839;43.206;23.550;2023-05-11T01:32:31;97352.25;;;12.03;100.00
21361;BME280;10839;43.206;23.550;2023-05-11T01:35:06;97334.34;;;11.89;100.00
21361;BME280;10839;43.206;23.550;2023-05-11T01:37:34;97354.25;;;11.95;100.00
21361;BME280;10839;43.206;23.550;2023-05-11T01:40:04;97355.06;;;11.89;100.00
21361;BME280;10839;43.206;23.550;2023-05-11T01:42:40;97344.25;;;11.82;100.00
21361;BME280;10839;43.206;23.550;2023-05-11T01:45:09;97352.94;;;11.78;100.00
21361;BME280;10839;43.206;23.550;2023-05-11T01:47:37;97349.63;;;11.82;100.00
21361;BME280;10839;43.206;23.550;2023-05-11T01:50:06;97353.75;;;11.78;100.00
21361;BME280;10839;43.206;23.550;2023-05-11T01:52:34;97344.72;;;11.92;100.00
21361;BME280;10839;43.206;23.550;2023-05-11T01:55:03;97347.19;;;11.87;100.00
21361;BME280;10839;43.206;23.550;2023-05-11T01:57:30;97347.59;;;11.84;100.00
21361;BME280;10839;43.206;23.550;2023-05-11T01:59:58;97350.16;;;11.99;100.00
21361;BME280;10839;43.206;23.550;2023-05-11T02:02:25;97354.16;;;12.09;100.00
21361;BME280;10839;43.206;23.550;2023-05-11T02:04:52;97358.03;;;12.00;100.00
21361;BME280;10839;43.206;23.550;2023-05-11T02:07:21;97357.88;;;11.74;100.00
21361;BME280;10839;43.206;23.550;2023-05-11T02:09:49;97356.69;;;11.83;100.00
21361;BME280;10839;43.206;23.550;2023-05-11T02:12:18;97348.50;;;11.98;100.00
21361;BME280;10839;43.206;23.550;2023-05-11T02:14:46;97348.25;;;11.93;100.00
21361;BME280;10839;43.206;23.550;2023-05-11T02:17:14;97356.47;;;12.12;100.00
21361;BME280;10839;43.206;23.550;2023-05-11T02:19:42;97358.66;;;11.68;100.00
21361;BME280;10839;43.206;23.550;2023-05-11T02:22:10;97353.97;;;11.83;100.00
21361;BME280;10839;43.206;23.550;2023-05-11T02:24:37;97355.53;;;11.99;100.00
21361;BME280;10839;43.206;23.550;2023-05-11T02:27:04;97359.22;;;11.91;100.00
21361;BME280;10839;43.206;23.550;2023-05-11T02:29:30;97361.31;;;11.89;100.00
21361;BME280;10839;43.206;23.550;2023-05-11T02:32:02;97361.63;;;11.80;100.00
21361;BME280;10839;43.206;23.550;2023-05-11T02:34:42;97368.75;;;11.87;100.00
21361;BME280;10839;43.206;23.550;2023-05-11T02:37:17;97372.84;;;12.11;100.00
21361;BME280;10839;43.206;23.550;2023-05-11T02:39:47;97365.00;;;11.88;100.00
21361;BME280;10839;43.206;23.550;2023-05-11T02:42:19;97375.00;;;11.88;100.00
21361;BME280;10839;43.206;23.550;2023-05-11T02:45:02;97373.75;;;11.90;100.00
21361;BME280;10839;43.206;23.550;2023-05-11T02:47:37;97367.22;;;11.78;100.00
21361;BME280;10839;43.206;23.550;2023-05-11T02:50:05;97368.66;;;11.74;100.00
21361;BME280;10839;43.206;23.550;2023-05-11T02:52:40;97375.78;;;11.88;100.00
21361;BME280;10839;43.206;23.550;2023-05-11T02:55:08;97367.88;;;11.80;100.00
21361;BME280;10839;43.206;23.550;2023-05-11T02:57:35;97376.19;;;11.85;100.00
21361;BME280;10839;43.206;23.550;2023-05-11T03:00:05;97371.19;;;11.82;100.00
21361;BME280;10839;43.206;23.550;2023-05-11T03:02:33;97366.78;;;12.02;100.00
21361;BME280;10839;43.206;23.550;2023-05-11T03:04:59;97379.69;;;12.13;100.00
21361;BME280;10839;43.206;23.550;2023-05-11T03:07:26;97381.66;;;11.98;100.00
21361;BME280;10839;43.206;23.550;2023-05-11T03:09:53;97377.22;;;12.18;100.00
21361;BME280;10839;43.206;23.550;2023-05-11T03:12:20;97368.88;;;12.07;100.00
21361;BME280;10839;43.206;23.550;2023-05-11T03:14:47;97379.97;;;11.91;100.00
21361;BME280;10839;43.206;23.550;2023-05-11T03:17:14;97377.31;;;11.97;100.00
21361;BME280;10839;43.206;23.550;2023-05-11T03:19:42;97379.69;;;12.13;100.00
21361;BME280;10839;43.206;23.550;2023-05-11T03:22:09;97373.34;;;11.93;100.00
21361;BME280;10839;43.206;23.550;2023-05-11T03:24:37;97379.69;;;12.13;100.00
21361;BME280;10839;43.206;23.550;2023-05-11T03:27:03;97380.91;;;12.04;100.00
21361;BME280;10839;43.206;23.550;2023-05-11T03:29:31;97380.50;;;12.07;100.00
21361;BME280;10839;43.206;23.550;2023-05-11T03:31:59;97377.56;;;12.02;100.00
21361;BME280;10839;43.206;23.550;2023-05-11T03:34:25;97382.63;;;11.84;100.00
21361;BME280;10839;43.206;23.550;2023-05-11T03:36:53;97385.09;;;11.79;100.00
21361;BME280;10839;43.206;23.550;2023-05-11T03:39:21;97388.16;;;11.76;100.00
21361;BME280;10839;43.206;23.550;2023-05-11T03:41:49;97389.44;;;11.80;100.00
21361;BME280;10839;43.206;23.550;2023-05-11T03:44:18;97390.72;;;11.84;100.00
21361;BME280;10839;43.206;23.550;2023-05-11T03:46:48;97393.66;;;11.89;100.00
21361;BME280;10839;43.206;23.550;2023-05-11T03:49:17;97383.16;;;11.73;100.00
21361;BME280;10839;43.206;23.550;2023-05-11T03:51:43;97389.44;;;11.80;100.00
21361;BME280;10839;43.206;23.550;2023-05-11T03:54:10;97391.97;;;11.88;100.00
21361;BME280;10839;43.206;23.550;2023-05-11T03:56:38;97395.31;;;11.90;100.00
21361;BME280;10839;43.206;23.550;2023-05-11T03:59:04;97397.44;;;11.67;100.00
21361;BME280;10839;43.206;23.550;2023-05-11T04:01:31;97399.31;;;11.73;100.00
21361;BME280;10839;43.206;23.550;2023-05-11T04:03:57;97399.09;;;11.68;100.00
21361;BME280;10839;43.206;23.550;2023-05-11T04:06:23;97396.84;;;11.72;100.00
21361;BME280;10839;43.206;23.550;2023-05-11T04:09:04;97403.56;;;11.82;100.00
21361;BME280;10839;43.206;23.550;2023-05-11T04:11:30;97397.72;;;11.79;100.00
21361;BME280;10839;43.206;23.550;2023-05-11T04:13:55;97395.19;;;11.71;100.00
21361;BME280;10839;43.206;23.550;2023-05-11T04:16:21;97400.16;;;11.74;100.00
21361;BME280;10839;43.206;23.550;2023-05-11T04:18:47;97402.66;;;11.75;100.00
21361;BME280;10839;43.206;23.550;2023-05-11T04:21:13;97402.47;;;12.04;100.00
21361;BME280;10839;43.206;23.550;2023-05-11T04:23:40;97405.59;;;11.80;100.00
21361;BME280;10839;43.206;23.550;2023-05-11T04:26:06;97413.09;;;11.85;100.00
21361;BME280;10839;43.206;23.550;2023-05-11T04:28:32;97402.75;;;11.88;100.00
21361;BME280;10839;43.206;23.550;2023-05-11T04:30:57;97397.22;;;11.69;100.00
21361;BME280;10839;43.206;23.550;2023-05-11T04:33:23;97405.59;;;11.80;100.00
21361;BME280;10839;43.206;23.550;2023-05-11T04:35:53;97416.31;;;12.01;100.00
21361;BME280;10839;43.206;23.550;2023-05-11T04:38:20;97411.56;;;12.03;100.00
21361;BME280;10839;43.206;23.550;2023-05-11T04:40:47;97401.25;;;11.58;100.00
21361;BME280;10839;43.206;23.550;2023-05-11T04:43:15;97419.09;;;11.59;100.00
21361;BME280;10839;43.206;23.550;2023-05-11T04:45:46;97419.19;;;11.66;100.00
21361;BME280;10839;43.206;23.550;2023-05-11T04:48:13;97418.72;;;11.62;100.00
21361;BME280;10839;43.206;23.550;2023-05-11T04:50:39;97425.66;;;11.50;100.00
21361;BME280;10839;43.206;23.550;2023-05-11T04:53:05;97409.59;;;11.63;100.00
21361;BME280;10839;43.206;23.550;2023-05-11T04:55:31;97408.84;;;11.69;100.00
21361;BME280;10839;43.206;23.550;2023-05-11T04:57:58;97411.00;;;11.80;100.00
21361;BME280;10839;43.206;23.550;2023-05-11T05:00:24;97413.06;;;11.78;100.00
21361;BME280;10839;43.206;23.550;2023-05-11T05:02:50;97414.09;;;11.77;100.00
21361;BME280;10839;43.206;23.550;2023-05-11T05:05:16;97412.66;;;11.81;100.00
21361;BME280;10839;43.206;23.550;2023-05-11T05:07:42;97413.63;;;12.01;100.00
21361;BME280;10839;43.206;23.550;2023-05-11T05:10:08;97420.47;;;12.31;100.00
21361;BME280;10839;43.206;23.550;2023-05-11T05:12:36;97418.75;;;11.90;100.00
21361;BME280;10839;43.206;23.550;2023-05-11T05:15:03;97413.63;;;12.01;100.00
21361;BME280;10839;43.206;23.550;2023-05-11T05:17:30;97418.44;;;11.78;100.00
21361;BME280;10839;43.206;23.550;2023-05-11T05:19:56;97421.28;;;11.70;100.00
21361;BME280;10839;43.206;23.550;2023-05-11T05:22:23;97419.44;;;11.98;100.00
21361;BME280;10839;43.206;23.550;2023-05-11T05:24:49;97428.16;;;12.00;100.00
21361;BME280;10839;43.206;23.550;2023-05-11T05:27:16;97430.97;;;11.86;100.00
21361;BME280;10839;43.206;23.550;2023-05-11T05:29:42;97432.25;;;11.96;100.00
21361;BME280;10839;43.206;23.550;2023-05-11T05:32:08;97437.53;;;12.04;100.00
21361;BME280;10839;43.206;23.550;2023-05-11T05:34:33;97429.84;;;12.08;100.00
21361;BME280;10839;43.206;23.550;2023-05-11T05:37:00;97427.91;;;12.29;100.00
21361;BME280;10839;43.206;23.550;2023-05-11T05:39:26;97423.91;;;12.53;100.00
21361;BME280;10839;43.206;23.550;2023-05-11T05:41:52;97439.41;;;12.78;100.00
21361;BME280;10839;43.206;23.550;2023-05-11T05:44:18;97442.25;;;12.30;100.00
21361;BME280;10839;43.206;23.550;2023-05-11T05:46:44;97444.34;;;12.34;100.00
21361;BME280;10839;43.206;23.550;2023-05-11T05:49:10;97436.16;;;12.21;100.00
21361;BME280;10839;43.206;23.550;2023-05-11T05:51:36;97434.69;;;12.12;100.00
21361;BME280;10839;43.206;23.550;2023-05-11T05:54:02;97438.72;;;12.29;100.00
21361;BME280;10839;43.206;23.550;2023-05-11T05:56:29;97441.66;;;12.34;100.00
21361;BME280;10839;43.206;23.550;2023-05-11T05:58:56;97442.13;;;12.44;100.00
21361;BME280;10839;43.206;23.550;2023-05-11T06:01:22;97433.25;;;12.50;100.00
21361;BME280;10839;43.206;23.550;2023-05-11T06:03:48;97447.63;;;12.57;100.00
21361;BME280;10839;43.206;23.550;2023-05-11T06:06:16;97442.72;;;12.74;100.00
21361;BME280;10839;43.206;23.550;2023-05-11T06:08:42;97445.31;;;13.02;100.00
21361;BME280;10839;43.206;23.550;2023-05-11T06:11:08;97450.16;;;12.72;100.00
21361;BME280;10839;43.206;23.550;2023-05-11T06:13:35;97452.47;;;13.29;99.71
21361;BME280;10839;43.206;23.550;2023-05-11T06:16:00;97435.28;;;12.82;96.81
21361;BME280;10839;43.206;23.550;2023-05-11T06:18:32;97436.06;;;12.76;96.20
21361;BME280;10839;43.206;23.550;2023-05-11T06:21:00;97445.72;;;12.99;95.05
21361;BME280;10839;43.206;23.550;2023-05-11T06:23:28;97443.22;;;12.97;94.45
21361;BME280;10839;43.206;23.550;2023-05-11T06:25:54;97452.84;;;13.13;95.36
21361;BME280;10839;43.206;23.550;2023-05-11T06:28:20;97452.94;;;13.52;92.85
21361;BME280;10839;43.206;23.550;2023-05-11T06:30:49;97451.69;;;13.61;90.45
21361;BME280;10839;43.206;23.550;2023-05-11T06:33:15;97448.81;;;13.82;89.35
21361;BME280;10839;43.206;23.550;2023-05-11T06:35:41;97442.97;;;13.59;89.16
21361;BME280;10839;43.206;23.550;2023-05-11T06:38:10;97447.97;;;13.62;90.27
21361;BME280;10839;43.206;23.550;2023-05-11T06:40:36;97452.56;;;14.07;87.35
21361;BME280;10839;43.206;23.550;2023-05-11T06:43:02;97444.84;;;13.91;88.57
21361;BME280;10839;43.206;23.550;2023-05-11T06:45:44;97451.50;;;13.62;89.50
21361;BME280;10839;43.206;23.550;2023-05-11T06:48:09;97453.78;;;13.59;89.61
21361;BME280;10839;43.206;23.550;2023-05-11T06:50:35;97447.09;;;13.48;88.72
21361;BME280;10839;43.206;23.550;2023-05-11T06:53:01;97460.84;;;13.47;89.77
21361;BME280;10839;43.206;23.550;2023-05-11T06:55:28;97463.75;;;13.65;88.39
21361;BME280;10839;43.206;23.550;2023-05-11T06:57:54;97449.63;;;14.28;85.58
21361;BME280;10839;43.206;23.550;2023-05-11T07:00:20;97456.91;;;14.28;85.18
21361;BME280;10839;43.206;23.550;2023-05-11T07:02:46;97453.38;;;14.40;83.85
21361;BME280;10839;43.206;23.550;2023-05-11T07:05:12;97453.28;;;14.66;82.88
21361;BME280;10839;43.206;23.550;2023-05-11T07:07:37;97465.03;;;14.47;82.14
21361;BME280;10839;43.206;23.550;2023-05-11T07:10:05;97462.31;;;14.34;82.46
21361;BME280;10839;43.206;23.550;2023-05-11T07:12:31;97456.91;;;14.47;80.55
21361;BME280;10839;43.206;23.550;2023-05-11T07:14:56;97459.19;;;14.11;82.45
21361;BME280;10839;43.206;23.550;2023-05-11T07:17:22;97466.56;;;14.81;80.47
21361;BME280;10839;43.206;23.550;2023-05-11T07:19:48;97463.41;;;15.34;77.07
21361;BME280;10839;43.206;23.550;2023-05-11T07:22:17;97467.38;;;15.38;74.79
21361;BME280;10839;43.206;23.550;2023-05-11T07:24:43;97474.13;;;15.23;74.60
21361;BME280;10839;43.206;23.550;2023-05-11T07:27:09;97473.78;;;15.51;73.09
21361;BME280;10839;43.206;23.550;2023-05-11T07:29:35;97476.63;;;15.69;70.16
21361;BME280;10839;43.206;23.550;2023-05-11T07:32:01;97476.47;;;15.88;69.55
21361;BME280;10839;43.206;23.550;2023-05-11T07:34:27;97486.84;;;16.47;67.71
21361;BME280;10839;43.206;23.550;2023-05-11T07:36:53;97479.41;;;15.87;65.95
21361;BME280;10839;43.206;23.550;2023-05-11T07:39:18;97480.72;;;15.78;65.62
21361;BME280;10839;43.206;23.550;2023-05-11T07:41:44;97494.25;;;16.09;63.28
21361;BME280;10839;43.206;23.550;2023-05-11T07:44:10;97482.91;;;15.63;64.82
21361;BME280;10839;43.206;23.550;2023-05-11T07:46:36;97473.19;;;16.29;63.67
21361;BME280;10839;43.206;23.550;2023-05-11T07:49:02;97488.75;;;15.91;64.12
21361;BME280;10839;43.206;23.550;2023-05-11T07:51:28;97483.66;;;16.25;62.71
21361;BME280;10839;43.206;23.550;2023-05-11T07:53:54;97484.34;;;16.21;63.71
21361;BME280;10839;43.206;23.550;2023-05-11T07:56:20;97478.84;;;16.03;63.36
21361;BME280;10839;43.206;23.550;2023-05-11T07:58:45;97496.44;;;15.94;62.97
21361;BME280;10839;43.206;23.550;2023-05-11T08:01:11;97483.47;;;16.27;62.64
21361;BME280;10839;43.206;23.550;2023-05-11T08:03:37;97477.28;;;15.89;62.11
21361;BME280;10839;43.206;23.550;2023-05-11T08:06:03;97483.88;;;15.75;62.09
21361;BME280;10839;43.206;23.550;2023-05-11T08:08:29;97481.53;;;17.13;59.38
21361;BME280;10839;43.206;23.550;2023-05-11T08:10:56;97482.06;;;16.18;61.56
21361;BME280;10839;43.206;23.550;2023-05-11T08:13:21;97472.72;;;16.32;60.61
21361;BME280;10839;43.206;23.550;2023-05-11T08:15:47;97485.06;;;16.10;60.63
21361;BME280;10839;43.206;23.550;2023-05-11T08:18:13;97491.09;;;16.36;60.01
21361;BME280;10839;43.206;23.550;2023-05-11T08:20:39;97484.22;;;16.34;60.52
21361;BME280;10839;43.206;23.550;2023-05-11T08:23:07;97484.72;;;16.00;61.79
21361;BME280;10839;43.206;23.550;2023-05-11T08:25:33;97485.59;;;15.94;62.27
21361;BME280;10839;43.206;23.550;2023-05-11T08:28:00;97488.06;;;16.51;60.70
21361;BME280;10839;43.206;23.550;2023-05-11T08:30:26;97480.47;;;16.35;60.73
21361;BME280;10839;43.206;23.550;2023-05-11T08:32:52;97483.25;;;16.71;60.23
21361;BME280;10839;43.206;23.550;2023-05-11T08:35:18;97493.72;;;16.25;59.01
21361;BME280;10839;43.206;23.550;2023-05-11T08:37:43;97485.91;;;16.35;58.75
21361;BME280;10839;43.206;23.550;2023-05-11T08:40:10;97493.38;;;16.39;57.91
21361;BME280;10839;43.206;23.550;2023-05-11T08:42:39;97488.81;;;17.30;56.56
21361;BME280;10839;43.206;23.550;2023-05-11T08:45:06;97490.44;;;17.20;54.69
21361;BME280;10839;43.206;23.550;2023-05-11T08:47:34;97482.78;;;17.10;52.72
21361;BME280;10839;43.206;23.550;2023-05-11T08:50:00;97487.25;;;17.70;52.28
21361;BME280;10839;43.206;23.550;2023-05-11T08:52:26;97488.53;;;17.38;51.70
21361;BME280;10839;43.206;23.550;2023-05-11T08:54:52;97498.22;;;16.98;52.40
21361;BME280;10839;43.206;23.550;2023-05-11T08:57:19;97504.41;;;16.87;53.88
21361;BME280;10839;43.206;23.550;2023-05-11T08:59:45;97490.66;;;16.39;54.51
21361;BME280;10839;43.206;23.550;2023-05-11T09:02:17;97488.06;;;16.51;51.69
21361;BME280;10839;43.206;23.550;2023-05-11T09:04:44;97483.94;;;16.42;52.83
21361;BME280;10839;43.206;23.550;2023-05-11T09:07:13;97493.34;;;16.46;51.95
21361;BME280;10839;43.206;23.550;2023-05-11T09:09:40;97481.44;;;16.40;52.65
21361;BME280;10839;43.206;23.550;2023-05-11T09:12:10;97487.78;;;16.77;50.87
21361;BME280;10839;43.206;23.550;2023-05-11T09:14:36;97487.63;;;16.90;49.66
21361;BME280;10839;43.206;23.550;2023-05-11T09:17:02;97490.19;;;16.67;50.63
21361;BME280;10839;43.206;23.550;2023-05-11T09:19:29;97492.47;;;16.70;51.26
21361;BME280;10839;43.206;23.550;2023-05-11T09:21:55;97484.72;;;16.92;50.13
21361;BME280;10839;43.206;23.550;2023-05-11T09:24:21;97486.97;;;16.77;49.56
21361;BME280;10839;43.206;23.550;2023-05-11T09:26:47;97493.53;;;16.87;49.51
21361;BME280;10839;43.206;23.550;2023-05-11T09:29:13;97490.81;;;17.05;49.14
21361;BME280;10839;43.206;23.550;2023-05-11T09:31:47;97487.34;;;16.80;48.76
21361;BME280;10839;43.206;23.550;2023-05-11T09:34:18;97494.69;;;16.98;47.19
21361;BME280;10839;43.206;23.550;2023-05-11T09:36:47;97489.00;;;16.99;47.28
21361;BME280;10839;43.206;23.550;2023-05-11T09:39:14;97484.34;;;16.70;49.46
21361;BME280;10839;43.206;23.550;2023-05-11T09:41:40;97490.03;;;16.62;49.59
21361;BME280;10839;43.206;23.550;2023-05-11T09:44:11;97485.19;;;16.46;50.30
21361;BME280;10839;43.206;23.550;2023-05-11T09:46:39;97471.16;;;16.67;50.07
21361;BME280;10839;43.206;23.550;2023-05-11T09:49:06;97469.03;;;17.41;48.37
21361;BME280;10839;43.206;23.550;2023-05-11T09:51:34;97464.56;;;17.47;48.13
21361;BME280;10839;43.206;23.550;2023-05-11T09:54:22;97462.03;;;17.63;47.00
21361;BME280;10839;43.206;23.550;2023-05-11T09:56:51;97464.41;;;16.76;48.43
21361;BME280;10839;43.206;23.550;2023-05-11T09:59:39;97449.94;;;16.94;49.36
21361;BME280;10839;43.206;23.550;2023-05-11T10:04:44;97467.56;;;16.91;49.55
21361;BME280;10839;43.206;23.550;2023-05-11T10:07:10;97462.44;;;17.01;49.49
21361;BME280;10839;43.206;23.550;2023-05-11T10:09:35;97468.53;;;17.15;49.86
21361;BME280;10839;43.206;23.550;2023-05-11T10:12:04;97461.78;;;17.17;49.91
21361;BME280;10839;43.206;23.550;2023-05-11T10:14:31;97465.03;;;17.26;48.77
21361;BME280;10839;43.206;23.550;2023-05-11T10:16:57;97473.97;;;16.79;49.96
21361;BME280;10839;43.206;23.550;2023-05-11T10:19:26;97456.84;;;16.78;50.14
21361;BME280;10839;43.206;23.550;2023-05-11T10:21:52;97438.25;;;17.41;48.47
21361;BME280;10839;43.206;23.550;2023-05-11T10:24:20;97441.03;;;17.94;45.87
21361;BME280;10839;43.206;23.550;2023-05-11T10:26:46;97455.28;;;17.36;46.49
21361;BME280;10839;43.206;23.550;2023-05-11T10:29:12;97451.19;;;17.45;46.12
21361;BME280;10839;43.206;23.550;2023-05-11T10:31:39;97437.00;;;17.25;46.39
21361;BME280;10839;43.206;23.550;2023-05-11T10:34:05;97444.00;;;17.51;45.36
21361;BME280;10839;43.206;23.550;2023-05-11T10:36:33;97433.81;;;17.46;44.60
21361;BME280;10839;43.206;23.550;2023-05-11T10:38:59;97433.47;;;17.96;44.22
21361;BME280;10839;43.206;23.550;2023-05-11T10:51:51;97437.41;;;17.40;43.47
21361;BME280;10839;43.206;23.550;2023-05-11T11:02:36;97432.47;;;17.78;44.59
21361;BME280;10839;43.206;23.550;2023-05-11T11:05:02;97420.69;;;17.96;43.52
21361;BME280;10839;43.206;23.550;2023-05-11T11:07:31;97425.44;;;18.01;43.58
21361;BME280;10839;43.206;23.550;2023-05-11T11:09:58;97440.25;;;18.05;41.81
21361;BME280;10839;43.206;23.550;2023-05-11T11:12:26;97428.03;;;18.19;42.71
21361;BME280;10839;43.206;23.550;2023-05-11T11:15:02;97418.69;;;17.92;43.53
21361;BME280;10839;43.206;23.550;2023-05-11T11:17:34;97417.63;;;18.16;43.43
21361;BME280;10839;43.206;23.550;2023-05-11T11:20:02;97426.78;;;18.44;43.54
21361;BME280;10839;43.206;23.550;2023-05-11T11:25:08;97404.34;;;18.77;42.87
21361;BME280;10839;43.206;23.550;2023-05-11T11:32:55;97420.34;;;18.04;43.83
21361;BME280;10839;43.206;23.550;2023-05-11T11:38:15;97419.19;;;18.58;42.76
21361;BME280;10839;43.206;23.550;2023-05-11T11:40:46;97420.97;;;18.41;43.47
21361;BME280;10839;43.206;23.550;2023-05-11T11:43:16;97412.16;;;17.93;43.95
21361;BME280;10839;43.206;23.550;2023-05-11T11:46:00;97413.13;;;18.10;44.33
21361;BME280;10839;43.206;23.550;2023-05-11T11:48:34;97398.78;;;17.91;44.15
21361;BME280;10839;43.206;23.550;2023-05-11T12:01:06;97395.94;;;18.21;44.34
21361;BME280;10839;43.206;23.550;2023-05-11T12:03:36;97410.31;;;18.51;43.82
21361;BME280;10839;43.206;23.550;2023-05-11T12:06:07;97400.31;;;18.22;44.71
21361;BME280;10839;43.206;23.550;2023-05-11T12:08:35;97400.13;;;18.35;44.67
21361;BME280;10839;43.206;23.550;2023-05-11T12:11:02;97388.88;;;18.43;45.35
21361;BME280;10839;43.206;23.550;2023-05-11T12:13:29;97391.34;;;18.10;45.32
21361;BME280;10839;43.206;23.550;2023-05-11T12:16:16;97399.28;;;18.57;44.84
21361;BME280;10839;43.206;23.550;2023-05-11T12:18:53;97393.00;;;18.57;45.23
21361;BME280;10839;43.206;23.550;2023-05-11T12:21:22;97394.94;;;18.45;45.51
21361;BME280;10839;43.206;23.550;2023-05-11T12:23:53;97384.78;;;18.68;44.47
21361;BME280;10839;43.206;23.550;2023-05-11T12:26:23;97385.66;;;18.00;46.69
21361;BME280;10839;43.206;23.550;2023-05-11T12:29:08;97380.34;;;18.39;46.91
21361;BME280;10839;43.206;23.550;2023-05-11T12:31:36;97376.78;;;18.50;46.95
21361;BME280;10839;43.206;23.550;2023-05-11T12:34:02;97377.56;;;18.74;46.43
21361;BME280;10839;43.206;23.550;2023-05-11T12:36:28;97383.38;;;18.66;46.66
21361;BME280;10839;43.206;23.550;2023-05-11T12:38:55;97384.28;;;18.94;45.91
21361;BME280;10839;43.206;23.550;2023-05-11T12:41:21;97367.34;;;18.81;46.50
21361;BME280;10839;43.206;23.550;2023-05-11T12:43:52;97359.34;;;18.17;47.09
21361;BME280;10839;43.206;23.550;2023-05-11T12:46:19;97363.19;;;18.78;46.17
21361;BME280;10839;43.206;23.550;2023-05-11T12:48:46;97357.41;;;19.15;45.01
21361;BME280;10839;43.206;23.550;2023-05-11T12:51:13;97359.34;;;18.63;46.69
21361;BME280;10839;43.206;23.550;2023-05-11T12:53:39;97351.31;;;18.45;47.62
21361;BME280;10839;43.206;23.550;2023-05-11T12:56:08;97345.47;;;19.04;47.34
21361;BME280;10839;43.206;23.550;2023-05-11T12:58:35;97349.16;;;18.47;48.08
21361;BME280;10839;43.206;23.550;2023-05-11T13:01:05;97342.56;;;18.43;48.88
21361;BME280;10839;43.206;23.550;2023-05-11T13:03:32;97338.47;;;18.57;48.39
21361;BME280;10839;43.206;23.550;2023-05-11T13:06:10;97330.28;;;19.08;47.00
21361;BME280;10839;43.206;23.550;2023-05-11T13:08:43;97317.94;;;18.77;46.88
21361;BME280;10839;43.206;23.550;2023-05-11T13:11:17;97322.75;;;18.87;46.38
21361;BME280;10839;43.206;23.550;2023-05-11T13:13:45;97322.34;;;18.67;47.23
21361;BME280;10839;43.206;23.550;2023-05-11T13:16:10;97305.69;;;18.80;48.30
21361;BME280;10839;43.206;23.550;2023-05-11T13:18:36;97324.53;;;18.42;50.54
21361;BME280;10839;43.206;23.550;2023-05-11T13:21:06;97316.47;;;18.47;50.36
21361;BME280;10839;43.206;23.550;2023-05-11T13:23:33;97327.38;;;18.24;49.92
21361;BME280;10839;43.206;23.550;2023-05-11T13:25:58;97316.22;;;18.25;51.05
21361;BME280;10839;43.206;23.550;2023-05-11T13:28:25;97319.56;;;18.16;50.26
21361;BME280;10839;43.206;23.550;2023-05-11T13:30:57;97319.44;;;18.45;50.04
21361;BME280;10839;43.206;23.550;2023-05-11T13:33:24;97311.88;;;18.13;50.10
21361;BME280;10839;43.206;23.550;2023-05-11T13:35:50;97322.63;;;18.54;50.00